Time;durP1;ratioP1;P1;durP2;ratioP2;P2;SDS_P1;SDS_P2;PMS_P1;PMS_P2;Temp;Humidity;BMP_temperature;BMP_pressure;BME280_temperature;BME280_humidity;BME280_pressure;Samples;Min_cycle;Max_cycle;Signal;HPM_P1;HPM_P2
2024/02/04 00:02:03;;;;;;;;;7.00;6.00;;;;;8.72;94.63;99877.06;6309207;20;2748317;-49
2024/02/04 00:04:32;;;;;;;;;7.00;7.00;;;;;8.56;95.58;99870.75;6278058;20;2743433;-47
2024/02/04 00:07:00;;;;;;;;;7.00;5.00;;;;;8.49;95.64;99861.28;6281459;20;2745077;-48
2024/02/04 00:09:28;;;;;;;;;5.00;5.00;;;;;8.59;94.99;99859.91;6287822;20;2747235;-48
2024/02/04 00:11:58;;;;;;;;;5.00;5.00;;;;;8.49;95.38;99853.28;6281089;20;2748204;-49
2024/02/04 00:14:26;;;;;;;;;6.00;6.00;;;;;8.61;95.02;99849.09;6279542;20;2745078;-52
2024/02/04 00:16:54;;;;;;;;;5.50;5.50;;;;;8.54;94.96;99853.91;6295735;20;1794043;-47
2024/02/04 00:19:22;;;;;;;;;5.00;5.00;;;;;8.55;94.84;99848.47;6312916;20;2743141;-47
2024/02/04 00:21:50;;;;;;;;;6.00;6.00;;;;;8.48;95.05;99846.19;6312431;20;2734742;-50
2024/02/04 00:24:19;;;;;;;;;6.00;4.00;;;;;8.54;94.81;99846.72;6325432;20;1813963;-49
2024/02/04 00:26:48;;;;;;;;;5.00;5.00;;;;;8.57;94.87;99849.25;6311480;20;2744196;-48
2024/02/04 00:29:15;;;;;;;;;6.50;5.00;;;;;8.60;94.63;99853.59;6275025;20;2749273;-49
2024/02/04 00:31:43;;;;;;;;;4.00;4.00;;;;;8.64;94.29;99865.03;6279547;20;2750411;-49
2024/02/04 00:34:11;;;;;;;;;3.50;3.50;;;;;8.56;94.56;99860.91;6276166;20;2755507;-48
2024/02/04 00:36:39;;;;;;;;;5.00;5.00;;;;;8.48;94.66;99867.59;6280267;20;2746130;-47
2024/02/04 00:39:07;;;;;;;;;5.00;5.00;;;;;8.49;95.51;99875.53;6279038;20;2748222;-50
2024/02/04 00:41:35;;;;;;;;;4.00;4.00;;;;;8.48;95.44;99868.47;6279125;20;2749339;-49
2024/02/04 00:44:03;;;;;;;;;4.50;4.50;;;;;8.52;94.97;99863.81;6275596;20;2749287;-50
2024/02/04 00:46:32;;;;;;;;;3.75;3.25;;;;;8.62;94.70;99869.56;6293557;20;1814974;-49
2024/02/04 00:49:00;;;;;;;;;3.50;3.50;;;;;8.67;93.65;99878.25;6324454;20;1811710;-48
2024/02/04 00:51:28;;;;;;;;;5.00;5.00;;;;;8.66;93.44;99872.03;6309417;20;2748264;-47
2024/02/04 00:53:56;;;;;;;;;3.50;3.50;;;;;8.64;93.72;99875.72;6277595;20;2752345;-52
2024/02/04 00:56:24;;;;;;;;;4.00;4.00;;;;;8.62;93.62;99870.44;6276866;20;2750433;-47
2024/02/04 00:58:53;;;;;;;;;3.00;3.00;;;;;8.71;93.06;99875.31;6295236;20;1812986;-48
2024/02/04 01:01:20;;;;;;;;;4.00;4.00;;;;;8.69;93.19;99881.69;6310172;20;2754573;-54
2024/02/04 01:03:49;;;;;;;;;3.00;3.00;;;;;8.71;93.66;99880.66;6297050;20;1803602;-51
2024/02/04 01:06:18;;;;;;;;;2.00;1.00;;;;;8.79;92.95;99877.59;6328991;20;1813933;-50
2024/02/04 01:08:46;;;;;;;;;4.00;4.00;;;;;8.74;92.79;99887.66;6308998;20;2756541;-50
2024/02/04 01:11:13;;;;;;;;;3.50;3.00;;;;;8.83;93.24;99887.22;6278246;20;2753565;-48
2024/02/04 01:13:41;;;;;;;;;2.00;2.00;;;;;8.88;92.26;99885.16;6276031;20;2748300;-47
2024/02/04 01:16:10;;;;;;;;;2.50;2.50;;;;;8.97;91.39;99884.69;6294660;20;1808751;-50
2024/02/04 01:18:38;;;;;;;;;5.00;3.50;;;;;8.75;92.29;99876.03;6327051;20;1813562;-50
2024/02/04 01:21:08;;;;;;;;;4.00;4.00;;;;;8.89;91.85;99876.19;6306738;20;2755551;-48
2024/02/04 01:23:36;;;;;;;;;5.50;4.00;;;;;8.66;92.91;99871.13;6276510;20;2756580;-47
2024/02/04 01:26:04;;;;;;;;;4.00;4.00;;;;;8.73;92.71;99865.41;6278706;20;2756571;-48
2024/02/04 01:28:32;;;;;;;;;3.00;3.00;;;;;8.58;93.40;99866.16;6279787;20;2748337;-49
2024/02/04 01:30:59;;;;;;;;;4.00;4.00;;;;;8.49;94.22;99855.94;6277929;20;2749239;-50
2024/02/04 01:33:29;;;;;;;;;4.25;3.00;;;;;8.38;95.30;99867.16;6295041;20;1807757;-48
2024/02/04 01:35:58;;;;;;;;;4.00;4.00;;;;;8.26;96.22;99860.59;6309493;20;2745066;-49
2024/02/04 01:38:26;;;;;;;;;4.00;4.00;;;;;8.17;97.31;99847.69;6310774;20;2736748;-47
2024/02/04 01:40:53;;;;;;;;;4.00;4.00;;;;;8.09;97.33;99839.16;6307186;20;2750365;-48
2024/02/04 01:43:22;;;;;;;;;4.50;3.50;;;;;8.17;97.13;99852.16;6277824;20;2752368;-50
2024/02/04 01:45:54;;;;;;;;;6.75;3.00;;;;;7.96;98.51;99852.25;6294491;20;1817056;-49
2024/02/04 01:48:23;;;;;;;;;2.50;2.50;;;;;8.09;97.60;99840.03;6323972;20;1820186;-49
2024/02/04 01:50:54;;;;;;;;;3.50;3.50;;;;;8.15;97.32;99833.50;6303717;20;2754481;-48
2024/02/04 01:53:24;;;;;;;;;2.75;2.75;;;;;8.06;97.79;99829.50;6293573;20;1809863;-50
2024/02/04 01:55:54;;;;;;;;;5.50;3.00;;;;;8.11;97.95;99827.47;6307444;20;2750310;-49
2024/02/04 01:58:24;;;;;;;;;3.75;3.75;;;;;8.06;97.15;99829.50;6291034;20;1800296;-49
2024/02/04 02:00:52;;;;;;;;;3.50;3.50;;;;;8.05;97.47;99819.72;6308052;20;2744108;-52
2024/02/04 02:03:23;;;;;;;;;4.50;4.50;;;;;8.22;97.47;99807.34;6277599;20;2752401;-49
2024/02/04 02:05:52;;;;;;;;;5.00;3.00;;;;;8.21;97.07;99803.78;6292082;20;1812918;-48
2024/02/04 02:08:20;;;;;;;;;4.00;4.00;;;;;8.34;97.31;99798.69;6306569;20;2756537;-50
2024/02/04 02:10:49;;;;;;;;;4.50;3.50;;;;;8.12;98.30;99802.44;6274789;20;2754424;-52
2024/02/04 02:13:32;;;;;;;;;6.50;6.25;;;;;8.35;98.02;99803.09;6290592;20;1809839;-50
2024/02/04 02:16:16;;;;;;;;;5.00;3.00;;;;;8.31;96.72;99796.16;6305708;20;2747149;-50
2024/02/04 02:18:52;;;;;;;;;4.00;4.00;;;;;8.50;96.84;99796.13;6276712;20;2741025;-51
2024/02/04 02:22:02;;;;;;;;;3.50;3.50;;;;;8.63;95.47;99804.38;6308254;20;2745215;-50
2024/02/04 02:24:41;;;;;;;;;3.00;3.00;;;;;8.75;94.99;99787.69;6273320;20;2748279;-49
2024/02/04 02:27:09;;;;;;;;;4.00;4.00;;;;;8.91;94.03;99801.16;6277514;20;2750361;-50
2024/02/04 02:29:37;;;;;;;;;4.50;4.50;;;;;8.94;93.55;99793.81;6278201;20;2754471;-50
2024/02/04 02:32:06;;;;;;;;;3.25;3.25;;;;;8.94;92.99;99790.25;6290129;20;1818099;-48
2024/02/04 02:34:35;;;;;;;;;4.75;3.00;;;;;9.06;92.00;99788.72;6323763;20;1805605;-49
2024/02/04 02:37:35;;;;;;;;;1.75;1.75;;;;;9.01;92.37;99792.53;6321937;20;1816030;-52
2024/02/04 02:40:21;;;;;;;;;2.00;2.00;;;;;9.02;91.32;99798.75;6306411;20;2742990;-51
2024/02/04 02:42:53;;;;;;;;;4.25;4.25;;;;;8.85;92.43;99796.13;6289694;20;1820291;-47
2024/02/04 02:45:24;;;;;;;;;3.00;3.00;;;;;8.94;91.90;99790.25;6325367;20;1812900;-49
2024/02/04 02:47:54;;;;;;;;;4.00;4.00;;;;;8.95;91.45;99781.28;6304833;20;2754473;-49
2024/02/04 02:50:24;;;;;;;;;2.00;2.00;;;;;8.86;92.39;99782.63;6292150;20;1814952;-50
2024/02/04 02:52:52;;;;;;;;;5.00;2.00;;;;;8.86;92.04;99793.34;6308064;20;2756542;-49
2024/02/04 02:55:20;;;;;;;;;2.00;2.00;;;;;8.85;92.63;99796.13;6294116;20;1809853;-47
2024/02/04 02:57:49;;;;;;;;;3.00;3.00;;;;;8.91;92.60;99791.28;6325355;20;1803441;-50
2024/02/04 03:00:17;;;;;;;;;5.00;4.00;;;;;8.66;93.77;99780.13;6309826;20;2749254;-46
2024/02/04 03:02:45;;;;;;;;;3.50;3.50;;;;;8.75;93.54;99763.59;6294075;20;1811100;-49
2024/02/04 03:05:16;;;;;;;;;3.00;3.00;;;;;8.83;93.56;99766.75;6329402;20;1803447;-51
2024/02/04 03:07:45;;;;;;;;;2.50;2.50;;;;;8.72;94.15;99761.09;6330380;20;1817081;-51
2024/02/04 03:10:13;;;;;;;;;3.00;3.00;;;;;8.75;94.31;99779.66;6328087;20;1810918;-48
2024/02/04 03:12:41;;;;;;;;;5.00;5.00;;;;;8.73;94.16;99776.19;6313331;20;2751488;-47
2024/02/04 03:15:09;;;;;;;;;3.00;3.00;;;;;8.84;93.30;99784.53;6281663;20;2742001;-47
2024/02/04 03:17:38;;;;;;;;;3.00;3.00;;;;;9.01;92.57;99797.91;6331208;20;1812856;-49
2024/02/04 03:20:07;;;;;;;;;3.00;3.00;;;;;8.97;92.81;99800.81;6327131;20;1822282;-47
2024/02/04 03:22:36;;;;;;;;;3.00;3.00;;;;;8.99;92.83;99788.22;6331947;20;1809761;-48
2024/02/04 03:25:05;;;;;;;;;5.00;3.00;;;;;9.01;92.79;99783.63;6311709;20;2748200;-49
2024/02/04 03:27:32;;;;;;;;;6.00;6.00;;;;;8.98;92.69;99797.19;6314475;20;2744035;-48
2024/02/04 03:30:01;;;;;;;;;5.50;5.00;;;;;9.01;92.63;99794.34;6281733;20;2747154;-51
2024/02/04 03:32:33;;;;;;;;;4.00;4.00;;;;;8.87;93.67;99800.41;6297508;20;1809808;-49
2024/02/04 03:35:02;;;;;;;;;4.50;3.00;;;;;8.86;94.36;99798.69;6311276;20;2753547;-52
2024/02/04 03:37:30;;;;;;;;;4.50;4.50;;;;;8.78;93.96;99790.22;6282083;20;2752385;-49
2024/02/04 03:39:58;;;;;;;;;4.00;4.00;;;;;8.55;95.77;99805.63;6281723;20;2748907;-49
2024/02/04 03:42:26;;;;;;;;;4.50;4.50;;;;;8.47;97.01;99807.84;6281103;20;2745151;-49
2024/02/04 03:44:55;;;;;;;;;4.00;4.00;;;;;8.49;97.50;99814.00;6311363;20;2738904;-49
2024/02/04 03:47:23;;;;;;;;;7.00;5.00;;;;;8.53;98.37;99818.25;6311638;20;2752474;-51
2024/02/04 03:49:51;;;;;;;;;5.75;4.25;;;;;8.39;98.47;99804.69;6297264;20;1792001;-50
2024/02/04 03:52:19;;;;;;;;;6.00;6.00;;;;;8.40;99.01;99801.09;6314682;20;2739893;-50
2024/02/04 03:54:47;;;;;;;;;8.50;7.00;;;;;8.36;99.20;99811.03;6311578;20;2748207;-52
2024/02/04 03:57:16;;;;;;;;;7.00;6.25;;;;;8.24;99.45;99809.00;6296690;20;1813954;-52
2024/02/04 03:59:47;;;;;;;;;4.50;4.50;;;;;8.25;100.00;99812.53;6312979;20;2746128;-49
2024/02/04 04:02:14;;;;;;;;;6.00;6.00;;;;;8.25;100.00;99804.50;6278694;20;2748245;-52
2024/02/04 04:04:48;;;;;;;;;8.50;7.00;;;;;8.27;100.00;99824.03;6295982;20;1806661;-47
2024/02/04 04:07:16;;;;;;;;;6.50;6.50;;;;;8.34;100.00;99825.44;6314131;20;2734761;-48
2024/02/04 04:09:45;;;;;;;;;5.25;5.25;;;;;8.34;100.00;99809.38;6326708;20;1812882;-50
2024/02/04 04:12:13;;;;;;;;;5.00;5.00;;;;;8.47;99.73;99821.22;6326527;20;1813889;-49
2024/02/04 04:14:41;;;;;;;;;4.50;4.50;;;;;8.48;99.43;99825.66;6310412;20;2747299;-47
2024/02/04 04:17:09;;;;;;;;;4.00;4.00;;;;;8.61;98.29;99819.66;6281437;20;2749288;-50
2024/02/04 04:19:37;;;;;;;;;6.00;6.00;;;;;8.74;97.63;99810.03;6279971;20;2742987;-52
2024/02/04 04:22:05;;;;;;;;;3.33;2.00;;;;;8.73;98.05;99808.31;6310327;20;3438853;-47
2024/02/04 04:24:33;;;;;;;;;5.00;5.00;;;;;8.64;98.90;99808.81;6295522;20;1813515;-47
2024/02/04 04:27:01;;;;;;;;;5.00;5.00;;;;;8.76;98.16;99832.25;6310924;20;2754549;-48
2024/02/04 04:29:29;;;;;;;;;4.00;4.00;;;;;8.72;97.95;99838.72;6279077;20;2753412;-49
2024/02/04 04:31:57;;;;;;;;;4.00;4.00;;;;;8.90;96.90;99837.78;6279523;20;2754873;-52
2024/02/04 04:34:25;;;;;;;;;7.25;7.00;;;;;8.79;97.19;99841.00;6293697;20;1811520;-50
2024/02/04 04:36:54;;;;;;;;;4.75;4.75;;;;;8.70;98.18;99829.91;6323257;20;1813850;-48
2024/02/04 04:39:21;;;;;;;;;4.00;4.00;;;;;8.79;98.64;99832.97;6311548;20;2743073;-52
2024/02/04 04:41:49;;;;;;;;;5.00;5.00;;;;;8.48;99.80;99824.78;6280127;20;2744031;-52
2024/02/04 04:44:17;;;;;;;;;7.00;7.00;;;;;8.62;100.00;99824.06;6278704;20;2735815;-50
2024/02/04 04:46:45;;;;;;;;;5.00;5.00;;;;;8.62;100.00;99814.22;6309964;20;2739909;-50
2024/02/04 04:49:13;;;;;;;;;6.75;6.75;;;;;8.74;100.00;99826.09;6295932;20;1812044;-50
2024/02/04 04:51:48;;;;;;;;;7.00;7.00;;;;;8.69;100.00;99828.16;6306328;20;2733722;-48
2024/02/04 04:54:16;;;;;;;;;8.50;7.00;;;;;8.84;100.00;99843.41;6309565;20;2732675;-49
2024/02/04 04:56:43;;;;;;;;;6.00;6.00;;;;;8.74;100.00;99842.16;6313489;20;2738855;-47
2024/02/04 04:59:11;;;;;;;;;8.00;6.50;;;;;8.73;100.00;99853.81;6309476;20;2744160;-48
2024/02/04 05:01:48;;;;;;;;;8.00;8.00;;;;;8.82;100.00;99842.66;6277506;20;2744113;-51
2024/02/04 05:04:23;;;;;;;;;8.00;8.00;;;;;8.85;100.00;99850.53;6276826;20;2731564;-50
2024/02/04 05:06:52;;;;;;;;;7.00;7.00;;;;;8.90;100.00;99842.22;6308455;20;2727461;-50
2024/02/04 05:09:21;;;;;;;;;1.50;1.50;;;;;8.86;100.00;99841.53;6299074;20;1809837;-47
2024/02/04 05:11:49;;;;;;;;;8.50;8.50;;;;;8.93;100.00;99842.97;6309309;20;2740953;-49
2024/02/04 05:14:16;;;;;;;;;9.00;8.00;;;;;8.98;100.00;99854.31;6273447;20;2752372;-49
2024/02/04 05:16:45;;;;;;;;;8.00;8.00;;;;;8.99;100.00;99857.84;6279844;20;2744156;-49
2024/02/04 05:19:13;;;;;;;;;10.00;8.00;;;;;9.04;100.00;99850.44;6276271;20;2762784;-51
2024/02/04 05:21:41;;;;;;;;;11.00;11.00;;;;;8.78;100.00;99841.06;6279567;20;2800273;-49
2024/02/04 05:24:08;;;;;;;;;11.00;11.00;;;;;8.98;100.00;99840.91;6281243;20;2794094;-49
2024/02/04 05:26:37;;;;;;;;;15.00;13.33;;;;;8.86;100.00;99830.84;6276056;20;3529447;-48
2024/02/04 05:29:06;;;;;;;;;12.67;12.00;;;;;8.92;100.00;99838.53;6308262;20;2793051;-52
2024/02/04 05:31:42;;;;;;;;;9.60;8.80;;;;;8.85;100.00;99845.19;6331852;20;2751362;-50
2024/02/04 05:34:12;;;;;;;;;13.60;10.40;;;;;8.79;100.00;99824.06;6298127;20;2794118;-48
2024/02/04 05:36:42;;;;;;;;;12.20;12.20;;;;;8.71;100.00;99818.25;6302107;20;2786835;-49
2024/02/04 05:39:16;;;;;;;;;10.00;10.00;;;;;8.88;100.00;99818.25;6275556;20;2785815;-52
2024/02/04 05:41:46;;;;;;;;;11.00;10.20;;;;;8.88;100.00;99818.25;6299928;20;2789899;-49
2024/02/04 05:44:14;;;;;;;;;13.00;12.00;;;;;8.92;100.00;99825.16;6274677;20;2797175;-48
2024/02/04 05:46:42;;;;;;;;;11.33;11.33;;;;;8.88;100.00;99818.25;6274768;20;2788895;-50
2024/02/04 05:49:11;;;;;;;;;12.00;10.00;;;;;8.84;100.00;99802.41;6305256;20;2792039;-52
2024/02/04 05:51:42;;;;;;;;;11.20;11.00;;;;;8.88;100.00;99810.19;6332025;20;2786282;-47
2024/02/04 05:54:09;;;;;;;;;16.50;13.50;;;;;8.87;100.00;99816.47;6275988;20;2813845;-53
2024/02/04 05:56:39;;;;;;;;;14.67;13.33;;;;;8.78;100.00;99819.66;6276834;20;3538202;-50
2024/02/04 05:59:07;;;;;;;;;16.00;14.00;;;;;8.75;100.00;99823.34;6309544;20;2809671;-47
2024/02/04 06:01:35;;;;;;;;;14.00;14.00;;;;;8.86;100.00;99825.47;6274524;20;2799352;-52
2024/02/04 06:04:04;;;;;;;;;12.00;12.00;;;;;8.75;100.00;99828.72;6305592;20;3544006;-50
2024/02/04 06:06:33;;;;;;;;;11.00;11.00;;;;;8.75;100.00;99823.34;6306832;20;3546089;-53
2024/02/04 06:09:01;;;;;;;;;10.00;10.00;;;;;8.87;100.00;99829.00;6308591;20;2785724;-50
2024/02/04 06:11:29;;;;;;;;;11.00;9.50;;;;;8.93;100.00;99826.91;6278481;20;2773255;-50
2024/02/04 06:13:57;;;;;;;;;11.00;10.00;;;;;9.01;100.00;99835.38;6277534;20;2794047;-49
2024/02/04 06:16:26;;;;;;;;;12.40;12.00;;;;;8.88;100.00;99847.69;6300322;20;2788949;-50
2024/02/04 06:18:58;;;;;;;;;16.33;14.67;;;;;8.86;100.00;99854.94;6275270;20;3548278;-49
2024/02/04 06:21:26;;;;;;;;;14.00;13.00;;;;;8.96;100.00;99850.81;6274060;20;3534802;-49
2024/02/04 06:23:55;;;;;;;;;12.00;12.00;;;;;9.07;100.00;99860.97;6303899;20;3516933;-49
2024/02/04 06:26:23;;;;;;;;;10.00;10.00;;;;;9.08;100.00;99853.81;6310667;20;2780614;-52
2024/02/04 06:28:52;;;;;;;;;16.00;15.00;;;;;9.07;100.00;99849.41;6273642;20;3545052;-48
2024/02/04 06:31:20;;;;;;;;;9.00;9.00;;;;;9.00;100.00;99865.81;6276258;20;2758623;-49
2024/02/04 06:33:49;;;;;;;;;11.00;11.00;;;;;8.98;100.00;99866.81;6271010;20;2801609;-53
2024/02/04 06:36:17;;;;;;;;;9.00;9.00;;;;;9.08;100.00;99867.19;6307843;20;2752382;-51
2024/02/04 06:38:46;;;;;;;;;9.80;7.60;;;;;8.91;100.00;99870.75;6305853;20;2761748;-52
2024/02/04 06:41:16;;;;;;;;;10.00;10.00;;;;;9.07;100.00;99865.47;6303881;20;2794041;-51
2024/02/04 06:43:44;;;;;;;;;9.00;8.50;;;;;9.25;100.00;99877.91;6281976;20;2754483;-50
2024/02/04 06:46:11;;;;;;;;;10.00;10.00;;;;;10.41;93.10;99883.16;6281134;20;2793004;-49
2024/02/04 06:48:39;;;;;;;;;9.00;9.00;;;;;10.94;87.47;99884.50;6285126;20;2743010;-50
2024/02/04 06:51:07;;;;;;;;;10.00;10.00;;;;;10.81;87.36;99899.63;6278707;20;2787780;-50
2024/02/04 06:53:35;;;;;;;;;9.00;9.00;;;;;12.40;79.18;99905.84;6279961;20;2755574;-52
2024/02/04 06:56:03;;;;;;;;;10.00;9.00;;;;;12.99;72.49;99904.63;6278671;20;2775327;-50
2024/02/04 06:58:31;;;;;;;;;9.00;9.00;;;;;11.95;77.68;99894.38;6281061;20;2756551;-50
2024/02/04 07:00:59;;;;;;;;;10.00;8.00;;;;;11.90;78.45;99892.94;6278442;20;2764902;-52
2024/02/04 07:03:26;;;;;;;;;8.00;8.00;;;;;13.82;68.74;99918.63;6280274;20;2756985;-52
2024/02/04 07:05:55;;;;;;;;;7.00;7.00;;;;;13.15;70.38;99926.88;6281076;20;2740664;-51
2024/02/04 07:08:23;;;;;;;;;11.00;8.33;;;;;15.73;61.66;99930.44;6278052;20;2767075;-50
2024/02/04 07:10:51;;;;;;;;;8.00;8.00;;;;;15.26;61.09;99932.28;6317317;20;2740914;-51
2024/02/04 07:13:20;;;;;;;;;6.00;6.00;;;;;16.75;56.43;99939.34;6277741;20;2729579;-52
2024/02/04 07:15:48;;;;;;;;;5.00;5.00;;;;;18.74;50.87;99944.69;6282668;20;2740960;-53
2024/02/04 07:18:17;;;;;;;;;5.50;5.50;;;;;17.01;52.58;99944.44;6286537;20;2736769;-50
2024/02/04 07:20:45;;;;;;;;;6.00;6.00;;;;;14.14;60.94;99937.03;6279444;20;2744130;-53
2024/02/04 07:23:13;;;;;;;;;5.00;5.00;;;;;17.60;54.98;99946.63;6290216;20;2595109;-52
2024/02/04 07:25:41;;;;;;;;;5.00;5.00;;;;;20.30;47.51;99954.44;6282199;20;2747163;-53
2024/02/04 07:28:09;;;;;;;;;7.00;5.50;;;;;20.04;46.37;99956.13;6281477;20;2739292;-52
2024/02/04 07:30:36;;;;;;;;;7.00;7.00;;;;;21.44;43.27;99943.09;6284721;20;2741044;-51
2024/02/04 07:33:06;;;;;;;;;5.20;4.00;;;;;19.15;47.66;99948.22;6308030;20;2743054;-51
2024/02/04 07:35:34;;;;;;;;;3.00;3.00;;;;;19.53;46.32;99953.63;6314789;20;2738863;-53
2024/02/04 07:38:03;;;;;;;;;2.67;2.67;;;;;19.35;46.51;99951.78;6285820;20;2739936;-53
2024/02/04 07:40:32;;;;;;;;;4.20;4.20;;;;;19.86;45.12;99942.41;6337180;20;2746111;-53
2024/02/04 07:43:03;;;;;;;;;6.00;6.00;;;;;14.08;61.02;99916.75;6336332;20;2738908;-53
2024/02/04 07:45:30;;;;;;;;;5.00;3.00;;;;;12.70;70.18;99915.56;6310710;20;2756632;-52
2024/02/04 07:47:58;;;;;;;;;4.50;4.50;;;;;12.42;73.02;99911.97;6283138;20;2747222;-51
2024/02/04 07:50:27;;;;;;;;;5.25;5.25;;;;;12.49;74.54;99904.38;6299475;20;1798355;-50
2024/02/04 07:52:55;;;;;;;;;4.00;3.00;;;;;12.66;73.72;99903.22;6310260;20;2744050;-52
2024/02/04 07:55:23;;;;;;;;;2.50;2.50;;;;;12.75;73.74;99894.56;6283411;20;2750307;-53
2024/02/04 07:57:50;;;;;;;;;4.00;4.00;;;;;12.26;76.18;99895.97;6279311;20;2748210;-51
2024/02/04 08:00:18;;;;;;;;;5.00;5.00;;;;;12.56;75.05;99894.94;6283948;20;2739902;-52
2024/02/04 08:02:46;;;;;;;;;4.00;4.00;;;;;12.59;74.60;99897.41;6281034;20;2744012;-49
2024/02/04 08:05:14;;;;;;;;;4.00;4.00;;;;;12.59;75.79;99897.41;6279600;20;2742036;-53
2024/02/04 08:07:42;;;;;;;;;5.00;5.00;;;;;12.60;74.55;99903.66;6282174;20;2744035;-53
2024/02/04 08:10:10;;;;;;;;;5.00;5.00;;;;;12.45;75.71;99892.94;6281312;20;2743100;-55
2024/02/04 08:12:38;;;;;;;;;4.50;4.50;;;;;12.16;76.27;99886.75;6280487;20;2735835;-50
2024/02/04 08:15:07;;;;;;;;;6.00;6.00;;;;;12.33;76.70;99876.72;6281429;20;2746148;-50
2024/02/04 08:17:36;;;;;;;;;5.00;5.00;;;;;12.62;75.66;99864.03;6301649;20;2744050;-50
2024/02/04 08:20:05;;;;;;;;;9.00;8.00;;;;;12.48;75.18;99855.03;6308787;20;2750302;-52
2024/02/04 08:22:33;;;;;;;;;4.00;4.00;;;;;12.34;75.72;99865.84;6281001;20;2735744;-51
2024/02/04 08:25:02;;;;;;;;;5.00;4.00;;;;;12.26;75.74;99878.94;6277778;20;2740922;-51
2024/02/04 08:27:30;;;;;;;;;5.00;5.00;;;;;11.95;77.99;99869.31;6279039;20;2745191;-53
2024/02/04 08:29:58;;;;;;;;;6.00;6.00;;;;;12.03;77.84;99857.09;6271965;20;2732600;-53
2024/02/04 08:32:26;;;;;;;;;5.00;5.00;;;;;11.64;79.91;99864.03;6276576;20;2748246;-53
2024/02/04 08:34:57;;;;;;;;;4.00;4.00;;;;;12.06;78.54;99862.28;6318380;20;1796225;-53
2024/02/04 08:37:25;;;;;;;;;4.00;4.00;;;;;12.37;77.47;99873.72;6309862;20;2750370;-53
2024/02/04 08:39:55;;;;;;;;;3.00;3.00;;;;;11.86;77.83;99866.25;6282039;20;2729653;-50
2024/02/04 08:42:23;;;;;;;;;3.00;3.00;;;;;11.73;79.32;99870.66;6281864;20;2744136;-49
2024/02/04 08:44:51;;;;;;;;;4.50;4.00;;;;;11.35;81.55;99870.38;6278606;20;2750364;-51
2024/02/04 08:47:19;;;;;;;;;6.00;5.00;;;;;11.82;79.54;99871.88;6278777;20;2748261;-52
2024/02/04 08:49:47;;;;;;;;;5.00;5.00;;;;;12.11;77.56;99879.94;6273049;20;2748200;-50
2024/02/04 08:52:14;;;;;;;;;4.00;4.00;;;;;12.14;76.81;99875.25;6273405;20;2744066;-52
2024/02/04 08:54:42;;;;;;;;;6.00;3.00;;;;;12.26;76.29;99879.81;6274608;20;2750333;-50
2024/02/04 08:57:10;;;;;;;;;5.00;4.00;;;;;12.37;75.53;99880.94;6275708;20;2745084;-49
2024/02/04 08:59:39;;;;;;;;;11.67;11.67;;;;;12.39;75.15;99881.69;6273037;20;3531549;-49
2024/02/04 09:02:08;;;;;;;;;10.00;10.00;;;;;12.37;74.67;99886.31;6270307;20;2784133;-52
2024/02/04 09:04:40;;;;;;;;;5.00;5.00;;;;;12.38;74.87;99878.16;6308788;20;2748313;-49
2024/02/04 09:07:08;;;;;;;;;5.00;5.00;;;;;12.34;74.79;99881.13;6277836;20;2745167;-51
2024/02/04 09:09:37;;;;;;;;;3.00;3.00;;;;;12.38;74.02;99886.22;6277302;20;2750286;-49
2024/02/04 09:12:05;;;;;;;;;5.00;5.00;;;;;12.32;74.86;99886.59;6274068;20;2736784;-48
2024/02/04 09:14:33;;;;;;;;;7.00;5.00;;;;;12.32;74.76;99878.53;6277442;20;2740924;-52
2024/02/04 09:17:04;;;;;;;;;4.50;3.50;;;;;11.78;76.82;99881.13;6277021;20;2743100;-49
2024/02/04 09:19:32;;;;;;;;;7.00;6.00;;;;;12.26;74.60;99870.88;6273644;20;2738829;-51
2024/02/04 09:22:03;;;;;;;;;4.00;4.00;;;;;11.95;76.39;99874.69;6274304;20;2753472;-52
2024/02/04 09:24:31;;;;;;;;;8.00;7.00;;;;;12.14;75.85;99868.97;6273536;20;2738878;-49
2024/02/04 09:26:59;;;;;;;;;4.00;4.00;;;;;12.45;74.30;99883.97;6276424;20;2753486;-53
2024/02/04 09:29:27;;;;;;;;;6.50;6.50;;;;;12.37;74.84;99879.09;6275623;20;2741993;-51
2024/02/04 09:31:55;;;;;;;;;5.00;3.00;;;;;12.24;74.22;99887.13;6272753;20;2752417;-53
2024/02/04 09:34:23;;;;;;;;;5.00;5.00;;;;;12.51;73.19;99873.69;6273965;20;2733697;-53
2024/02/04 09:36:53;;;;;;;;;2.50;2.50;;;;;12.46;72.99;99870.44;6279190;20;2727497;-51
2024/02/04 09:39:21;;;;;;;;;8.00;8.00;;;;;13.18;70.75;99875.44;6281233;20;2733727;-46
2024/02/04 09:41:49;;;;;;;;;3.00;3.00;;;;;13.15;68.98;99862.19;6277858;20;2739971;-49
2024/02/04 09:44:18;;;;;;;;;4.00;3.00;;;;;13.10;69.20;99848.16;6268084;20;2748235;-53
2024/02/04 09:46:46;;;;;;;;;8.00;8.00;;;;;13.36;68.76;99858.00;6270049;20;2741981;-51
2024/02/04 09:49:14;;;;;;;;;4.50;4.50;;;;;13.41;68.07;99856.84;6272843;20;2748222;-53
2024/02/04 09:51:43;;;;;;;;;6.00;4.00;;;;;13.49;67.67;99865.25;6268657;20;2747237;-48
2024/02/04 09:54:12;;;;;;;;;5.00;5.00;;;;;13.22;66.92;99874.28;6270468;20;2750300;-52
2024/02/04 09:56:41;;;;;;;;;1.00;1.00;;;;;13.32;66.41;99872.69;6283251;20;2727409;-49
2024/02/04 09:59:09;;;;;;;;;5.50;5.50;;;;;14.37;64.14;99876.81;6270588;20;2733707;-54
2024/02/04 10:01:36;;;;;;;;;5.00;5.00;;;;;13.72;64.91;99867.16;6272717;20;2732606;-51
2024/02/04 10:04:05;;;;;;;;;4.00;4.00;;;;;13.51;64.51;99880.34;6270162;20;2752386;-50
2024/02/04 10:06:33;;;;;;;;;6.00;5.00;;;;;13.54;64.62;99879.28;6273203;20;2745563;-52
2024/02/04 10:09:01;;;;;;;;;7.00;7.00;;;;;13.91;63.67;99882.03;6271983;20;2729448;-50
2024/02/04 10:11:29;;;;;;;;;4.00;4.00;;;;;13.82;64.04;99889.81;6271550;20;2746198;-52
2024/02/04 10:13:57;;;;;;;;;3.00;3.00;;;;;13.74;63.54;99886.78;6272922;20;2744052;-49
2024/02/04 10:16:26;;;;;;;;;5.00;4.00;;;;;13.67;63.92;99896.31;6268529;20;2754505;-50
2024/02/04 10:18:56;;;;;;;;;3.50;2.50;;;;;13.18;65.18;99870.91;6283577;20;1806771;-51
2024/02/04 10:21:25;;;;;;;;;3.00;3.00;;;;;13.09;65.63;99878.78;6301098;20;2740937;-52
2024/02/04 10:23:53;;;;;;;;;4.00;4.00;;;;;12.80;67.94;99870.84;6267867;20;2748210;-53
2024/02/04 10:26:21;;;;;;;;;6.00;4.50;;;;;12.99;65.87;99870.47;6271491;20;2747202;-50
2024/02/04 10:28:49;;;;;;;;;4.50;4.50;;;;;12.79;67.11;99873.63;6271279;20;2747268;-49
2024/02/04 10:31:17;;;;;;;;;3.00;3.00;;;;;12.76;66.66;99857.69;6266141;20;2747297;-53
2024/02/04 10:33:45;;;;;;;;;5.00;4.00;;;;;12.74;66.75;99858.66;6265071;20;2754449;-52
2024/02/04 10:36:13;;;;;;;;;5.00;5.00;;;;;12.51;68.31;99865.59;6268847;20;2771191;-51
2024/02/04 10:38:41;;;;;;;;;3.00;3.00;;;;;12.49;68.69;99870.22;6267542;20;2744104;-49
2024/02/04 10:41:15;;;;;;;;;5.00;4.00;;;;;12.55;68.47;99873.47;6266853;20;2754440;-51
2024/02/04 10:43:45;;;;;;;;;5.00;5.00;;;;;12.53;68.73;99870.84;6270948;20;2748286;-53
2024/02/04 10:46:20;;;;;;;;;3.00;3.00;;;;;13.00;67.21;99857.84;6268205;20;2752352;-52
2024/02/04 10:48:59;;;;;;;;;5.50;5.50;;;;;13.35;65.34;99858.13;6266890;20;2732591;-52
2024/02/04 10:51:28;;;;;;;;;7.00;3.00;;;;;13.56;64.90;99850.31;6271532;20;2779456;-50
2024/02/04 10:53:56;;;;;;;;;6.00;6.00;;;;;13.90;63.41;99853.28;6274634;20;2745105;-53
2024/02/04 10:56:55;;;;;;;;;4.00;4.00;;;;;13.43;65.61;99836.88;6274420;20;2752478;-49
2024/02/04 10:59:24;;;;;;;;;4.00;4.00;;;;;13.60;64.53;99843.75;6279736;20;2751408;-53
2024/02/04 11:01:53;;;;;;;;;1.50;1.50;;;;;13.14;64.91;99820.03;6292059;20;1790966;-51
2024/02/04 11:04:22;;;;;;;;;3.00;3.00;;;;;13.33;62.73;99820.47;6307228;20;2740440;-52
2024/02/04 11:06:51;;;;;;;;;2.50;2.50;;;;;13.15;63.52;99817.19;6281369;20;2732635;-53
2024/02/04 11:09:19;;;;;;;;;5.00;5.00;;;;;13.29;62.26;99827.03;6277574;20;2746139;-51
2024/02/04 11:11:49;;;;;;;;;6.00;6.00;;;;;13.01;64.38;99827.25;6303486;20;2742032;-50
2024/02/04 11:14:21;;;;;;;;;6.00;4.00;;;;;13.36;62.86;99817.56;6306958;20;2748218;-52
2024/02/04 11:17:33;;;;;;;;;5.00;5.00;;;;;13.14;63.51;99822.72;6276179;20;2752470;-49
2024/02/04 11:20:51;;;;;;;;;5.00;3.00;;;;;13.05;64.36;99812.56;6276384;20;2747203;-50
2024/02/04 11:24:10;;;;;;;;;12.00;10.67;;;;;12.81;64.06;99805.22;6271203;20;2784849;-48
2024/02/04 11:26:40;;;;;;;;;8.50;6.50;;;;;12.87;63.38;99812.84;6312667;20;2740919;-50
2024/02/04 11:29:10;;;;;;;;;5.50;5.00;;;;;13.12;63.14;99812.03;6280927;20;2748226;-51
2024/02/04 11:31:40;;;;;;;;;6.00;6.00;;;;;13.11;62.96;99813.00;6283043;20;2731591;-52